sensor_id;sensor_type;location;lat;lon;timestamp;P1;durP1;ratioP1;P2;durP2;ratioP2
16662;SDS011;8445;51.270;9.434;2023-01-28T00:01:08;3.00;;;2.80;;
16662;SDS011;8445;51.270;9.434;2023-01-28T00:03:35;3.23;;;2.23;;
16662;SDS011;8445;51.270;9.434;2023-01-28T00:06:04;4.23;;;2.63;;
16662;SDS011;8445;51.270;9.434;2023-01-28T00:08:31;3.73;;;2.97;;
16662;SDS011;8445;51.270;9.434;2023-01-28T00:11:01;2.50;;;2.30;;
16662;SDS011;8445;51.270;9.434;2023-01-28T00:13:27;3.67;;;2.30;;
16662;SDS011;8445;51.270;9.434;2023-01-28T00:15:58;4.23;;;2.53;;
16662;SDS011;8445;51.270;9.434;2023-01-28T00:18:25;5.00;;;2.50;;
16662;SDS011;8445;51.270;9.434;2023-01-28T00:20:57;3.10;;;2.53;;
16662;SDS011;8445;51.270;9.434;2023-01-28T00:23:27;3.97;;;2.60;;
16662;SDS011;8445;51.270;9.434;2023-01-28T00:25:56;3.67;;;2.63;;
16662;SDS011;8445;51.270;9.434;2023-01-28T00:28:23;3.43;;;1.83;;
16662;SDS011;8445;51.270;9.434;2023-01-28T00:30:48;2.60;;;2.40;;
16662;SDS011;8445;51.270;9.434;2023-01-28T00:33:14;5.57;;;2.20;;
16662;SDS011;8445;51.270;9.434;2023-01-28T00:35:39;3.13;;;2.93;;
16662;SDS011;8445;51.270;9.434;2023-01-28T00:38:05;4.20;;;2.40;;
16662;SDS011;8445;51.270;9.434;2023-01-28T00:40:30;3.83;;;2.63;;
16662;SDS011;8445;51.270;9.434;2023-01-28T00:42:56;2.87;;;2.30;;
16662;SDS011;8445;51.270;9.434;2023-01-28T00:45:22;3.00;;;2.43;;
16662;SDS011;8445;51.270;9.434;2023-01-28T00:47:48;5.90;;;2.90;;
16662;SDS011;8445;51.270;9.434;2023-01-28T00:50:13;3.70;;;2.70;;
16662;SDS011;8445;51.270;9.434;2023-01-28T00:52:39;3.57;;;2.90;;
16662;SDS011;8445;51.270;9.434;2023-01-28T00:55:05;4.73;;;2.77;;
16662;SDS011;8445;51.270;9.434;2023-01-28T00:57:31;2.60;;;2.40;;
16662;SDS011;8445;51.270;9.434;2023-01-28T00:59:57;3.40;;;2.50;;
16662;SDS011;8445;51.270;9.434;2023-01-28T01:02:22;2.30;;;2.20;;
16662;SDS011;8445;51.270;9.434;2023-01-28T01:04:48;2.20;;;2.00;;
16662;SDS011;8445;51.270;9.434;2023-01-28T01:07:24;2.10;;;2.00;;
16662;SDS011;8445;51.270;9.434;2023-01-28T01:10:14;2.67;;;2.40;;
16662;SDS011;8445;51.270;9.434;2023-01-28T01:12:42;3.97;;;2.60;;
16662;SDS011;8445;51.270;9.434;2023-01-28T01:15:10;3.07;;;2.67;;
16662;SDS011;8445;51.270;9.434;2023-01-28T01:17:39;2.93;;;2.50;;
16662;SDS011;8445;51.270;9.434;2023-01-28T01:20:07;3.93;;;2.50;;
16662;SDS011;8445;51.270;9.434;2023-01-28T01:22:36;4.07;;;2.07;;
16662;SDS011;8445;51.270;9.434;2023-01-28T01:25:03;2.93;;;2.60;;
16662;SDS011;8445;51.270;9.434;2023-01-28T01:27:29;2.17;;;1.97;;
16662;SDS011;8445;51.270;9.434;2023-01-28T01:29:57;2.43;;;2.23;;
16662;SDS011;8445;51.270;9.434;2023-01-28T01:32:29;2.73;;;2.37;;
16662;SDS011;8445;51.270;9.434;2023-01-28T01:34:59;2.80;;;2.60;;
16662;SDS011;8445;51.270;9.434;2023-01-28T01:37:25;3.27;;;2.30;;
16662;SDS011;8445;51.270;9.434;2023-01-28T01:39:50;3.93;;;2.60;;
16662;SDS011;8445;51.270;9.434;2023-01-28T01:42:16;2.10;;;1.97;;
16662;SDS011;8445;51.270;9.434;2023-01-28T01:50:08;4.40;;;2.77;;
16662;SDS011;8445;51.270;9.434;2023-01-28T01:52:55;3.07;;;2.30;;
16662;SDS011;8445;51.270;9.434;2023-01-28T01:55:25;2.60;;;2.40;;
16662;SDS011;8445;51.270;9.434;2023-01-28T01:57:56;2.50;;;2.30;;
16662;SDS011;8445;51.270;9.434;2023-01-28T02:00:26;3.60;;;2.03;;
16662;SDS011;8445;51.270;9.434;2023-01-28T02:02:52;3.17;;;1.90;;
16662;SDS011;8445;51.270;9.434;2023-01-28T02:05:19;2.23;;;2.00;;
16662;SDS011;8445;51.270;9.434;2023-01-28T02:07:46;4.57;;;2.53;;
16662;SDS011;8445;51.270;9.434;2023-01-28T02:10:16;2.23;;;2.13;;
16662;SDS011;8445;51.270;9.434;2023-01-28T02:12:43;2.83;;;2.23;;
16662;SDS011;8445;51.270;9.434;2023-01-28T02:15:16;2.40;;;2.20;;
16662;SDS011;8445;51.270;9.434;2023-01-28T02:17:43;3.43;;;2.93;;
16662;SDS011;8445;51.270;9.434;2023-01-28T02:20:11;3.50;;;2.50;;
16662;SDS011;8445;51.270;9.434;2023-01-28T02:26:05;2.03;;;1.93;;
16662;SDS011;8445;51.270;9.434;2023-01-28T02:31:23;5.63;;;2.40;;
16662;SDS011;8445;51.270;9.434;2023-01-28T02:34:05;2.47;;;2.27;;
16662;SDS011;8445;51.270;9.434;2023-01-28T02:39:25;3.83;;;2.43;;
16662;SDS011;8445;51.270;9.434;2023-01-28T02:42:04;2.93;;;2.40;;
16662;SDS011;8445;51.270;9.434;2023-01-28T02:44:36;3.80;;;2.33;;
16662;SDS011;8445;51.270;9.434;2023-01-28T02:47:02;2.50;;;2.30;;
16662;SDS011;8445;51.270;9.434;2023-01-28T02:49:49;3.20;;;2.50;;
16662;SDS011;8445;51.270;9.434;2023-01-28T02:52:19;5.07;;;2.67;;
16662;SDS011;8445;51.270;9.434;2023-01-28T03:00:25;4.47;;;2.30;;
16662;SDS011;8445;51.270;9.434;2023-01-28T03:03:04;3.07;;;2.40;;
16662;SDS011;8445;51.270;9.434;2023-01-28T03:05:47;3.00;;;2.17;;
16662;SDS011;8445;51.270;9.434;2023-01-28T03:08:57;3.47;;;2.40;;
16662;SDS011;8445;51.270;9.434;2023-01-28T03:11:41;3.27;;;2.13;;
16662;SDS011;8445;51.270;9.434;2023-01-28T03:14:29;3.40;;;2.40;;
16662;SDS011;8445;51.270;9.434;2023-01-28T03:17:51;4.77;;;2.47;;
16662;SDS011;8445;51.270;9.434;2023-01-28T03:27:13;3.20;;;2.30;;
16662;SDS011;8445;51.270;9.434;2023-01-28T03:30:10;3.90;;;2.30;;
16662;SDS011;8445;51.270;9.434;2023-01-28T03:33:02;2.83;;;2.30;;
16662;SDS011;8445;51.270;9.434;2023-01-28T03:35:47;2.97;;;2.40;;
16662;SDS011;8445;51.270;9.434;2023-01-28T03:38:32;2.20;;;2.03;;
16662;SDS011;8445;51.270;9.434;2023-01-28T03:41:07;3.03;;;2.47;;
16662;SDS011;8445;51.270;9.434;2023-01-28T03:43:35;6.23;;;2.37;;
16662;SDS011;8445;51.270;9.434;2023-01-28T03:46:01;3.20;;;2.30;;
16662;SDS011;8445;51.270;9.434;2023-01-28T03:48:28;3.27;;;2.30;;
16662;SDS011;8445;51.270;9.434;2023-01-28T03:50:54;4.13;;;2.50;;
16662;SDS011;8445;51.270;9.434;2023-01-28T03:53:21;5.53;;;2.43;;
16662;SDS011;8445;51.270;9.434;2023-01-28T03:55:49;4.20;;;2.10;;
16662;SDS011;8445;51.270;9.434;2023-01-28T03:58:16;3.43;;;2.20;;
16662;SDS011;8445;51.270;9.434;2023-01-28T04:00:43;5.17;;;2.17;;
16662;SDS011;8445;51.270;9.434;2023-01-28T04:03:11;5.97;;;2.37;;
16662;SDS011;8445;51.270;9.434;2023-01-28T04:05:57;5.13;;;2.10;;
16662;SDS011;8445;51.270;9.434;2023-01-28T04:08:47;4.90;;;1.90;;
16662;SDS011;8445;51.270;9.434;2023-01-28T04:11:43;2.33;;;1.87;;
16662;SDS011;8445;51.270;9.434;2023-01-28T04:14:12;2.67;;;2.10;;
16662;SDS011;8445;51.270;9.434;2023-01-28T04:16:47;3.80;;;2.40;;
16662;SDS011;8445;51.270;9.434;2023-01-28T04:19:13;2.60;;;2.10;;
16662;SDS011;8445;51.270;9.434;2023-01-28T04:21:40;2.80;;;1.90;;
16662;SDS011;8445;51.270;9.434;2023-01-28T04:24:06;3.80;;;2.47;;
16662;SDS011;8445;51.270;9.434;2023-01-28T04:26:32;2.93;;;2.50;;
16662;SDS011;8445;51.270;9.434;2023-01-28T04:28:58;4.83;;;2.43;;
16662;SDS011;8445;51.270;9.434;2023-01-28T04:31:24;3.20;;;1.90;;
16662;SDS011;8445;51.270;9.434;2023-01-28T04:34:11;6.53;;;2.70;;
16662;SDS011;8445;51.270;9.434;2023-01-28T04:37:00;11.97;;;3.80;;
16662;SDS011;8445;51.270;9.434;2023-01-28T04:39:48;7.30;;;3.30;;
16662;SDS011;8445;51.270;9.434;2023-01-28T04:42:36;4.30;;;2.27;;
16662;SDS011;8445;51.270;9.434;2023-01-28T04:45:25;6.73;;;2.70;;
16662;SDS011;8445;51.270;9.434;2023-01-28T04:48:01;2.50;;;1.93;;
16662;SDS011;8445;51.270;9.434;2023-01-28T04:51:05;2.60;;;1.90;;
16662;SDS011;8445;51.270;9.434;2023-01-28T04:53:52;2.10;;;1.90;;
16662;SDS011;8445;51.270;9.434;2023-01-28T04:56:32;4.20;;;1.90;;
16662;SDS011;8445;51.270;9.434;2023-01-28T04:58:59;4.53;;;1.90;;
16662;SDS011;8445;51.270;9.434;2023-01-28T05:01:26;4.27;;;2.07;;
16662;SDS011;8445;51.270;9.434;2023-01-28T05:03:52;3.60;;;2.17;;
16662;SDS011;8445;51.270;9.434;2023-01-28T05:06:24;6.00;;;2.20;;
16662;SDS011;8445;51.270;9.434;2023-01-28T05:08:53;4.13;;;1.90;;
16662;SDS011;8445;51.270;9.434;2023-01-28T05:11:18;4.17;;;1.90;;
16662;SDS011;8445;51.270;9.434;2023-01-28T05:13:47;3.53;;;1.80;;
16662;SDS011;8445;51.270;9.434;2023-01-28T05:16:13;2.40;;;1.80;;
16662;SDS011;8445;51.270;9.434;2023-01-28T05:18:38;2.23;;;2.03;;
16662;SDS011;8445;51.270;9.434;2023-01-28T05:21:10;3.20;;;2.33;;
16662;SDS011;8445;51.270;9.434;2023-01-28T05:23:37;10.47;;;4.67;;
16662;SDS011;8445;51.270;9.434;2023-01-28T05:26:03;6.47;;;3.33;;
16662;SDS011;8445;51.270;9.434;2023-01-28T05:28:28;4.60;;;2.60;;
16662;SDS011;8445;51.270;9.434;2023-01-28T05:30:56;4.13;;;1.87;;
16662;SDS011;8445;51.270;9.434;2023-01-28T05:33:21;5.30;;;2.70;;
16662;SDS011;8445;51.270;9.434;2023-01-28T05:35:47;3.37;;;2.00;;
16662;SDS011;8445;51.270;9.434;2023-01-28T05:38:15;4.23;;;1.53;;
16662;SDS011;8445;51.270;9.434;2023-01-28T05:40:40;1.27;;;1.27;;
16662;SDS011;8445;51.270;9.434;2023-01-28T05:43:06;2.30;;;1.50;;
16662;SDS011;8445;51.270;9.434;2023-01-28T05:45:58;1.80;;;1.40;;
16662;SDS011;8445;51.270;9.434;2023-01-28T05:48:31;5.37;;;3.00;;
16662;SDS011;8445;51.270;9.434;2023-01-28T05:51:15;5.60;;;1.70;;
16662;SDS011;8445;51.270;9.434;2023-01-28T05:53:45;3.27;;;1.93;;
16662;SDS011;8445;51.270;9.434;2023-01-28T05:56:11;8.03;;;4.00;;
16662;SDS011;8445;51.270;9.434;2023-01-28T05:58:37;6.63;;;2.63;;
16662;SDS011;8445;51.270;9.434;2023-01-28T06:01:03;3.87;;;1.83;;
16662;SDS011;8445;51.270;9.434;2023-01-28T06:03:39;2.67;;;1.97;;
16662;SDS011;8445;51.270;9.434;2023-01-28T06:06:05;6.80;;;3.37;;
16662;SDS011;8445;51.270;9.434;2023-01-28T06:08:30;9.83;;;4.40;;
16662;SDS011;8445;51.270;9.434;2023-01-28T06:10:57;6.00;;;3.17;;
16662;SDS011;8445;51.270;9.434;2023-01-28T06:13:23;7.20;;;3.47;;
16662;SDS011;8445;51.270;9.434;2023-01-28T06:16:07;3.17;;;1.93;;
16662;SDS011;8445;51.270;9.434;2023-01-28T06:18:37;7.67;;;3.37;;
16662;SDS011;8445;51.270;9.434;2023-01-28T06:21:05;7.07;;;3.30;;
16662;SDS011;8445;51.270;9.434;2023-01-28T06:23:31;6.43;;;2.67;;
16662;SDS011;8445;51.270;9.434;2023-01-28T06:25:56;4.73;;;2.73;;
16662;SDS011;8445;51.270;9.434;2023-01-28T06:28:23;9.43;;;4.57;;
16662;SDS011;8445;51.270;9.434;2023-01-28T06:30:49;11.57;;;5.10;;
16662;SDS011;8445;51.270;9.434;2023-01-28T06:33:16;13.27;;;5.97;;
16662;SDS011;8445;51.270;9.434;2023-01-28T06:35:42;20.30;;;7.53;;
16662;SDS011;8445;51.270;9.434;2023-01-28T06:38:09;19.17;;;6.97;;
16662;SDS011;8445;51.270;9.434;2023-01-28T06:40:35;4.30;;;2.20;;
16662;SDS011;8445;51.270;9.434;2023-01-28T06:43:00;4.30;;;2.53;;
16662;SDS011;8445;51.270;9.434;2023-01-28T06:45:25;2.40;;;2.00;;
16662;SDS011;8445;51.270;9.434;2023-01-28T06:47:51;6.17;;;2.53;;
16662;SDS011;8445;51.270;9.434;2023-01-28T06:50:16;4.50;;;2.37;;
16662;SDS011;8445;51.270;9.434;2023-01-28T06:52:42;3.30;;;2.00;;
16662;SDS011;8445;51.270;9.434;2023-01-28T06:55:08;5.30;;;2.13;;
16662;SDS011;8445;51.270;9.434;2023-01-28T06:57:37;2.23;;;2.03;;
16662;SDS011;8445;51.270;9.434;2023-01-28T07:00:04;2.60;;;1.83;;
16662;SDS011;8445;51.270;9.434;2023-01-28T07:02:31;3.97;;;2.13;;
16662;SDS011;8445;51.270;9.434;2023-01-28T07:04:56;3.87;;;2.27;;
16662;SDS011;8445;51.270;9.434;2023-01-28T07:07:22;3.23;;;2.50;;
16662;SDS011;8445;51.270;9.434;2023-01-28T07:09:47;3.00;;;2.30;;
16662;SDS011;8445;51.270;9.434;2023-01-28T07:12:12;3.93;;;2.10;;
16662;SDS011;8445;51.270;9.434;2023-01-28T07:14:38;4.03;;;2.30;;
16662;SDS011;8445;51.270;9.434;2023-01-28T07:17:03;2.07;;;1.80;;
16662;SDS011;8445;51.270;9.434;2023-01-28T07:19:29;2.27;;;1.90;;
16662;SDS011;8445;51.270;9.434;2023-01-28T07:21:57;2.10;;;1.90;;
16662;SDS011;8445;51.270;9.434;2023-01-28T07:24:25;3.37;;;2.10;;
16662;SDS011;8445;51.270;9.434;2023-01-28T07:26:58;4.10;;;2.13;;
16662;SDS011;8445;51.270;9.434;2023-01-28T07:29:26;2.90;;;2.60;;
16662;SDS011;8445;51.270;9.434;2023-01-28T07:31:51;4.13;;;2.90;;
16662;SDS011;8445;51.270;9.434;2023-01-28T07:34:17;6.33;;;3.40;;
16662;SDS011;8445;51.270;9.434;2023-01-28T07:36:42;5.27;;;3.53;;
16662;SDS011;8445;51.270;9.434;2023-01-28T07:39:07;10.50;;;3.63;;
16662;SDS011;8445;51.270;9.434;2023-01-28T07:41:33;5.07;;;3.30;;
16662;SDS011;8445;51.270;9.434;2023-01-28T07:44:03;4.27;;;2.90;;
16662;SDS011;8445;51.270;9.434;2023-01-28T07:46:29;3.00;;;2.70;;
16662;SDS011;8445;51.270;9.434;2023-01-28T07:48:54;3.67;;;3.27;;
16662;SDS011;8445;51.270;9.434;2023-01-28T07:51:20;9.13;;;3.60;;
16662;SDS011;8445;51.270;9.434;2023-01-28T07:53:45;5.80;;;3.67;;
16662;SDS011;8445;51.270;9.434;2023-01-28T07:56:11;4.83;;;3.40;;
16662;SDS011;8445;51.270;9.434;2023-01-28T07:58:36;5.13;;;3.23;;
16662;SDS011;8445;51.270;9.434;2023-01-28T08:01:03;3.57;;;3.07;;
16662;SDS011;8445;51.270;9.434;2023-01-28T08:03:28;2.93;;;2.63;;
16662;SDS011;8445;51.270;9.434;2023-01-28T08:05:55;5.73;;;2.80;;
16662;SDS011;8445;51.270;9.434;2023-01-28T08:08:21;3.43;;;2.53;;
16662;SDS011;8445;51.270;9.434;2023-01-28T08:10:48;2.40;;;2.17;;
16662;SDS011;8445;51.270;9.434;2023-01-28T08:13:14;3.53;;;2.47;;
16662;SDS011;8445;51.270;9.434;2023-01-28T08:15:41;2.80;;;2.60;;
16662;SDS011;8445;51.270;9.434;2023-01-28T08:18:08;5.17;;;3.00;;
16662;SDS011;8445;51.270;9.434;2023-01-28T08:20:37;3.47;;;2.50;;
16662;SDS011;8445;51.270;9.434;2023-01-28T08:25:32;4.27;;;2.80;;
16662;SDS011;8445;51.270;9.434;2023-01-28T08:27:58;3.37;;;2.60;;
16662;SDS011;8445;51.270;9.434;2023-01-28T08:30:27;4.00;;;2.80;;
16662;SDS011;8445;51.270;9.434;2023-01-28T08:32:56;3.57;;;2.37;;
16662;SDS011;8445;51.270;9.434;2023-01-28T08:35:23;3.73;;;2.30;;
16662;SDS011;8445;51.270;9.434;2023-01-28T08:37:49;2.07;;;1.97;;
16662;SDS011;8445;51.270;9.434;2023-01-28T08:40:14;2.77;;;2.53;;
16662;SDS011;8445;51.270;9.434;2023-01-28T08:42:45;4.53;;;2.13;;
16662;SDS011;8445;51.270;9.434;2023-01-28T08:45:12;2.87;;;2.17;;
16662;SDS011;8445;51.270;9.434;2023-01-28T08:47:46;4.60;;;2.23;;
16662;SDS011;8445;51.270;9.434;2023-01-28T08:50:12;3.17;;;2.20;;
16662;SDS011;8445;51.270;9.434;2023-01-28T08:52:38;2.80;;;2.60;;
16662;SDS011;8445;51.270;9.434;2023-01-28T08:55:03;5.37;;;2.17;;
16662;SDS011;8445;51.270;9.434;2023-01-28T08:57:29;2.73;;;2.33;;
16662;SDS011;8445;51.270;9.434;2023-01-28T08:59:54;3.13;;;2.30;;
16662;SDS011;8445;51.270;9.434;2023-01-28T09:02:20;3.60;;;2.50;;
16662;SDS011;8445;51.270;9.434;2023-01-28T09:04:45;3.27;;;2.23;;
16662;SDS011;8445;51.270;9.434;2023-01-28T09:07:10;3.90;;;2.80;;
16662;SDS011;8445;51.270;9.434;2023-01-28T09:09:36;2.70;;;2.50;;
16662;SDS011;8445;51.270;9.434;2023-01-28T09:12:01;3.27;;;2.40;;
16662;SDS011;8445;51.270;9.434;2023-01-28T09:14:27;4.40;;;2.40;;
16662;SDS011;8445;51.270;9.434;2023-01-28T09:16:52;2.53;;;2.33;;
16662;SDS011;8445;51.270;9.434;2023-01-28T09:19:18;5.43;;;2.40;;
16662;SDS011;8445;51.270;9.434;2023-01-28T09:21:43;2.37;;;2.07;;
16662;SDS011;8445;51.270;9.434;2023-01-28T09:24:12;4.83;;;2.00;;
16662;SDS011;8445;51.270;9.434;2023-01-28T09:26:37;4.17;;;2.40;;
16662;SDS011;8445;51.270;9.434;2023-01-28T09:29:03;5.13;;;2.30;;
16662;SDS011;8445;51.270;9.434;2023-01-28T09:31:28;2.80;;;2.57;;
16662;SDS011;8445;51.270;9.434;2023-01-28T09:33:54;3.37;;;2.53;;
16662;SDS011;8445;51.270;9.434;2023-01-28T09:36:21;4.67;;;2.60;;
16662;SDS011;8445;51.270;9.434;2023-01-28T09:38:47;4.07;;;2.47;;
16662;SDS011;8445;51.270;9.434;2023-01-28T09:41:51;4.63;;;2.83;;
16662;SDS011;8445;51.270;9.434;2023-01-28T09:47:24;5.00;;;3.53;;
16662;SDS011;8445;51.270;9.434;2023-01-28T09:49:54;5.10;;;2.70;;
16662;SDS011;8445;51.270;9.434;2023-01-28T09:52:24;3.53;;;2.30;;
16662;SDS011;8445;51.270;9.434;2023-01-28T09:54:51;2.83;;;2.33;;
16662;SDS011;8445;51.270;9.434;2023-01-28T09:57:24;3.83;;;2.53;;
16662;SDS011;8445;51.270;9.434;2023-01-28T09:59:55;4.00;;;2.30;;
16662;SDS011;8445;51.270;9.434;2023-01-28T10:15:47;4.37;;;2.40;;
16662;SDS011;8445;51.270;9.434;2023-01-28T10:21:22;3.77;;;3.00;;
16662;SDS011;8445;51.270;9.434;2023-01-28T10:26:38;9.63;;;3.13;;
16662;SDS011;8445;51.270;9.434;2023-01-28T10:29:18;6.27;;;3.13;;
16662;SDS011;8445;51.270;9.434;2023-01-28T10:31:59;3.20;;;2.60;;
16662;SDS011;8445;51.270;9.434;2023-01-28T10:34:30;4.40;;;2.97;;
16662;SDS011;8445;51.270;9.434;2023-01-28T10:36:56;4.20;;;3.30;;
16662;SDS011;8445;51.270;9.434;2023-01-28T10:39:22;4.47;;;3.40;;
16662;SDS011;8445;51.270;9.434;2023-01-28T10:41:51;5.30;;;3.27;;
16662;SDS011;8445;51.270;9.434;2023-01-28T10:44:25;3.87;;;2.93;;
16662;SDS011;8445;51.270;9.434;2023-01-28T10:46:56;3.40;;;2.90;;
16662;SDS011;8445;51.270;9.434;2023-01-28T10:49:26;5.20;;;3.17;;
16662;SDS011;8445;51.270;9.434;2023-01-28T10:51:53;3.30;;;3.00;;
16662;SDS011;8445;51.270;9.434;2023-01-28T10:54:26;4.13;;;2.80;;
16662;SDS011;8445;51.270;9.434;2023-01-28T10:56:53;3.40;;;3.10;;
16662;SDS011;8445;51.270;9.434;2023-01-28T11:01:53;3.57;;;3.10;;
16662;SDS011;8445;51.270;9.434;2023-01-28T11:04:27;4.17;;;3.33;;
16662;SDS011;8445;51.270;9.434;2023-01-28T11:06:56;4.37;;;3.47;;
16662;SDS011;8445;51.270;9.434;2023-01-28T11:09:25;3.30;;;3.00;;
16662;SDS011;8445;51.270;9.434;2023-01-28T11:12:09;3.43;;;3.13;;
16662;SDS011;8445;51.270;9.434;2023-01-28T11:14:36;4.20;;;3.37;;
16662;SDS011;8445;51.270;9.434;2023-01-28T11:17:02;3.53;;;3.17;;
16662;SDS011;8445;51.270;9.434;2023-01-28T11:19:33;3.83;;;3.50;;
16662;SDS011;8445;51.270;9.434;2023-01-28T11:22:03;4.53;;;3.10;;
16662;SDS011;8445;51.270;9.434;2023-01-28T11:24:29;5.57;;;3.33;;
16662;SDS011;8445;51.270;9.434;2023-01-28T11:27:00;3.63;;;2.87;;
16662;SDS011;8445;51.270;9.434;2023-01-28T11:29:38;4.03;;;3.20;;
16662;SDS011;8445;51.270;9.434;2023-01-28T11:32:19;4.37;;;2.70;;
16662;SDS011;8445;51.270;9.434;2023-01-28T11:41:41;2.53;;;2.13;;
16662;SDS011;8445;51.270;9.434;2023-01-28T11:52:19;3.70;;;2.37;;
16662;SDS011;8445;51.270;9.434;2023-01-28T12:17:42;2.23;;;1.90;;
16662;SDS011;8445;51.270;9.434;2023-01-28T12:20:17;3.27;;;1.80;;
16662;SDS011;8445;51.270;9.434;2023-01-28T12:26:01;1.87;;;1.67;;
16662;SDS011;8445;51.270;9.434;2023-01-28T12:34:45;1.50;;;1.40;;
16662;SDS011;8445;51.270;9.434;2023-01-28T12:46:03;2.10;;;1.90;;
16662;SDS011;8445;51.270;9.434;2023-01-28T12:51:17;3.67;;;1.80;;
16662;SDS011;8445;51.270;9.434;2023-01-28T12:54:01;2.77;;;1.63;;
16662;SDS011;8445;51.270;9.434;2023-01-28T12:56:37;6.60;;;3.80;;
16662;SDS011;8445;51.270;9.434;2023-01-28T12:59:11;2.97;;;2.07;;
16662;SDS011;8445;51.270;9.434;2023-01-28T13:01:55;1.97;;;1.50;;
16662;SDS011;8445;51.270;9.434;2023-01-28T13:07:03;1.63;;;1.53;;
16662;SDS011;8445;51.270;9.434;2023-01-28T13:09:37;4.07;;;1.60;;
16662;SDS011;8445;51.270;9.434;2023-01-28T13:12:09;1.70;;;1.60;;
16662;SDS011;8445;51.270;9.434;2023-01-28T13:14:36;2.30;;;1.70;;
16662;SDS011;8445;51.270;9.434;2023-01-28T13:17:12;2.77;;;1.80;;
16662;SDS011;8445;51.270;9.434;2023-01-28T13:19:57;1.77;;;1.67;;
16662;SDS011;8445;51.270;9.434;2023-01-28T13:22:25;1.77;;;1.60;;
16662;SDS011;8445;51.270;9.434;2023-01-28T13:27:59;2.50;;;1.70;;
16662;SDS011;8445;51.270;9.434;2023-01-28T13:30:27;2.10;;;2.00;;
16662;SDS011;8445;51.270;9.434;2023-01-28T13:35:35;2.80;;;2.10;;
16662;SDS011;8445;51.270;9.434;2023-01-28T13:38:15;2.40;;;2.00;;
16662;SDS011;8445;51.270;9.434;2023-01-28T13:40:51;4.80;;;2.30;;
16662;SDS011;8445;51.270;9.434;2023-01-28T13:43:24;2.03;;;1.93;;
16662;SDS011;8445;51.270;9.434;2023-01-28T13:46:02;2.13;;;1.97;;
16662;SDS011;8445;51.270;9.434;2023-01-28T13:51:09;2.70;;;1.77;;
16662;SDS011;8445;51.270;9.434;2023-01-28T13:53:45;2.67;;;1.90;;
16662;SDS011;8445;51.270;9.434;2023-01-28T13:56:35;3.10;;;1.67;;
16662;SDS011;8445;51.270;9.434;2023-01-28T14:04:37;3.50;;;2.03;;
16662;SDS011;8445;51.270;9.434;2023-01-28T14:07:08;2.33;;;2.00;;
16662;SDS011;8445;51.270;9.434;2023-01-28T14:17:49;2.70;;;1.97;;
16662;SDS011;8445;51.270;9.434;2023-01-28T14:20:20;2.80;;;1.93;;
16662;SDS011;8445;51.270;9.434;2023-01-28T14:22:50;2.07;;;1.73;;
16662;SDS011;8445;51.270;9.434;2023-01-28T14:26:02;4.00;;;1.80;;
16662;SDS011;8445;51.270;9.434;2023-01-28T14:28:18;3.20;;;2.40;;
16662;SDS011;8445;51.270;9.434;2023-01-28T14:30:53;3.13;;;1.80;;
16662;SDS011;8445;51.270;9.434;2023-01-28T14:33:23;1.93;;;1.80;;
16662;SDS011;8445;51.270;9.434;2023-01-28T14:35:49;2.50;;;2.00;;
16662;SDS011;8445;51.270;9.434;2023-01-28T14:38:19;2.70;;;1.97;;
16662;SDS011;8445;51.270;9.434;2023-01-28T14:40:51;3.60;;;2.30;;
16662;SDS011;8445;51.270;9.434;2023-01-28T14:43:22;3.97;;;2.73;;
16662;SDS011;8445;51.270;9.434;2023-01-28T14:46:39;3.40;;;2.80;;
16662;SDS011;8445;51.270;9.434;2023-01-28T14:51:39;3.97;;;2.33;;
16662;SDS011;8445;51.270;9.434;2023-01-28T14:54:24;3.23;;;1.90;;
16662;SDS011;8445;51.270;9.434;2023-01-28T14:59:56;3.20;;;2.10;;
16662;SDS011;8445;51.270;9.434;2023-01-28T15:02:30;4.73;;;2.50;;
16662;SDS011;8445;51.270;9.434;2023-01-28T15:05:08;4.80;;;2.33;;
16662;SDS011;8445;51.270;9.434;2023-01-28T15:07:42;2.30;;;2.10;;
16662;SDS011;8445;51.270;9.434;2023-01-28T15:10:16;2.10;;;2.00;;
16662;SDS011;8445;51.270;9.434;2023-01-28T15:12:43;5.43;;;2.37;;
16662;SDS011;8445;51.270;9.434;2023-01-28T15:15:32;3.47;;;2.20;;
16662;SDS011;8445;51.270;9.434;2023-01-28T15:18:02;2.33;;;2.10;;
16662;SDS011;8445;51.270;9.434;2023-01-28T15:20:32;2.60;;;2.30;;
16662;SDS011;8445;51.270;9.434;2023-01-28T15:22:57;4.47;;;2.50;;
16662;SDS011;8445;51.270;9.434;2023-01-28T15:25:27;3.90;;;2.60;;
16662;SDS011;8445;51.270;9.434;2023-01-28T15:27:54;3.60;;;2.50;;
16662;SDS011;8445;51.270;9.434;2023-01-28T15:30:26;3.50;;;2.60;;
16662;SDS011;8445;51.270;9.434;2023-01-28T15:32:57;3.70;;;2.63;;
16662;SDS011;8445;51.270;9.434;2023-01-28T15:35:28;2.57;;;2.33;;
16662;SDS011;8445;51.270;9.434;2023-01-28T15:37:54;3.20;;;2.60;;
16662;SDS011;8445;51.270;9.434;2023-01-28T15:40:20;2.67;;;2.47;;
16662;SDS011;8445;51.270;9.434;2023-01-28T15:42:49;2.70;;;2.50;;
16662;SDS011;8445;51.270;9.434;2023-01-28T15:45:16;4.80;;;2.90;;
16662;SDS011;8445;51.270;9.434;2023-01-28T15:47:43;5.67;;;2.93;;
16662;SDS011;8445;51.270;9.434;2023-01-28T15:50:17;3.07;;;2.73;;
16662;SDS011;8445;51.270;9.434;2023-01-28T15:52:47;2.80;;;2.57;;
16662;SDS011;8445;51.270;9.434;2023-01-28T15:55:47;2.60;;;2.40;;
16662;SDS011;8445;51.270;9.434;2023-01-28T16:01:02;2.90;;;2.70;;
16662;SDS011;8445;51.270;9.434;2023-01-28T16:03:34;3.33;;;3.03;;
16662;SDS011;8445;51.270;9.434;2023-01-28T16:06:08;6.07;;;3.10;;
16662;SDS011;8445;51.270;9.434;2023-01-28T16:11:22;3.83;;;3.00;;
16662;SDS011;8445;51.270;9.434;2023-01-28T16:13:50;4.00;;;3.60;;
16662;SDS011;8445;51.270;9.434;2023-01-28T16:16:24;5.20;;;3.33;;
16662;SDS011;8445;51.270;9.434;2023-01-28T16:18:55;3.03;;;2.83;;
16662;SDS011;8445;51.270;9.434;2023-01-28T16:21:23;4.63;;;3.30;;
16662;SDS011;8445;51.270;9.434;2023-01-28T16:26:32;3.80;;;3.40;;
16662;SDS011;8445;51.270;9.434;2023-01-28T16:29:10;4.83;;;3.77;;
16662;SDS011;8445;51.270;9.434;2023-01-28T16:31:38;4.97;;;4.17;;
16662;SDS011;8445;51.270;9.434;2023-01-28T16:34:03;4.67;;;4.03;;
16662;SDS011;8445;51.270;9.434;2023-01-28T16:36:29;4.80;;;3.73;;
16662;SDS011;8445;51.270;9.434;2023-01-28T16:38:54;5.53;;;3.90;;
16662;SDS011;8445;51.270;9.434;2023-01-28T16:41:24;4.20;;;3.80;;
16662;SDS011;8445;51.270;9.434;2023-01-28T16:43:52;5.10;;;3.80;;
16662;SDS011;8445;51.270;9.434;2023-01-28T16:46:17;4.63;;;3.30;;
16662;SDS011;8445;51.270;9.434;2023-01-28T16:48:43;4.03;;;3.73;;
16662;SDS011;8445;51.270;9.434;2023-01-28T16:51:15;5.23;;;3.93;;
16662;SDS011;8445;51.270;9.434;2023-01-28T16:53:42;10.37;;;4.10;;
16662;SDS011;8445;51.270;9.434;2023-01-28T16:56:12;5.80;;;4.10;;
16662;SDS011;8445;51.270;9.434;2023-01-28T16:58:42;4.60;;;3.70;;
16662;SDS011;8445;51.270;9.434;2023-01-28T17:01:08;6.30;;;3.83;;
16662;SDS011;8445;51.270;9.434;2023-01-28T17:03:36;5.57;;;3.83;;
16662;SDS011;8445;51.270;9.434;2023-01-28T17:06:02;5.47;;;3.87;;
16662;SDS011;8445;51.270;9.434;2023-01-28T17:08:28;6.73;;;4.00;;
16662;SDS011;8445;51.270;9.434;2023-01-28T17:10:54;4.67;;;3.70;;
16662;SDS011;8445;51.270;9.434;2023-01-28T17:13:20;6.17;;;3.80;;
16662;SDS011;8445;51.270;9.434;2023-01-28T17:15:46;4.67;;;4.00;;
16662;SDS011;8445;51.270;9.434;2023-01-28T17:18:11;3.97;;;3.63;;
16662;SDS011;8445;51.270;9.434;2023-01-28T17:20:37;4.87;;;4.20;;
16662;SDS011;8445;51.270;9.434;2023-01-28T17:23:07;4.53;;;4.13;;
16662;SDS011;8445;51.270;9.434;2023-01-28T17:25:37;6.63;;;4.50;;
16662;SDS011;8445;51.270;9.434;2023-01-28T17:28:03;5.77;;;4.60;;
16662;SDS011;8445;51.270;9.434;2023-01-28T17:30:30;9.40;;;4.80;;
16662;SDS011;8445;51.270;9.434;2023-01-28T17:32:55;5.17;;;4.67;;
16662;SDS011;8445;51.270;9.434;2023-01-28T17:35:21;7.30;;;4.77;;
16662;SDS011;8445;51.270;9.434;2023-01-28T17:37:46;6.53;;;5.20;;
16662;SDS011;8445;51.270;9.434;2023-01-28T17:40:12;5.27;;;4.77;;
16662;SDS011;8445;51.270;9.434;2023-01-28T17:42:38;8.53;;;5.90;;
16662;SDS011;8445;51.270;9.434;2023-01-28T17:45:04;7.63;;;5.63;;
16662;SDS011;8445;51.270;9.434;2023-01-28T17:47:30;9.67;;;6.00;;
16662;SDS011;8445;51.270;9.434;2023-01-28T17:49:55;7.80;;;5.57;;
16662;SDS011;8445;51.270;9.434;2023-01-28T17:52:21;9.07;;;6.20;;